Time;durP1;ratioP1;P1;durP2;ratioP2;P2;SDS_P1;SDS_P2;PMS_P1;PMS_P2;Temp;Humidity;BMP_temperature;BMP_pressure;BME280_temperature;BME280_humidity;BME280_pressure;Samples;Min_cycle;Max_cycle;Signal;HPM_P1;HPM_P2
2022/10/07 00:01:27;;;;;;;38.00;24.83;;;;;;;15.54;80.04;101951.28;4981388;28;20047;-77
2022/10/07 00:04:12;;;;;;;35.72;24.33;;;;;;;15.64;79.48;101948.25;4980085;28;20042;-76
2022/10/07 00:06:57;;;;;;;;;;;;;;;15.59;79.37;101948.38;4995880;28;20046;-77
2022/10/07 00:09:42;;;;;;;39.83;24.00;;;;;;;15.22;81.64;101932.41;4997460;28;19913;-77
2022/10/07 00:12:27;;;;;;;41.30;26.85;;;;;;;15.16;82.59;101928.19;4995857;28;20046;-77
2022/10/07 00:15:14;;;;;;;38.78;24.45;;;;;;;15.21;82.01;101931.59;4993826;28;20092;-77
2022/10/07 00:17:58;;;;;;;34.65;24.15;;;;;;;15.50;80.44;101943.94;4994694;28;20494;-77
2022/10/07 00:20:43;;;;;;;37.42;23.50;;;;;;;15.57;79.83;101944.31;4996206;28;20046;-76
2022/10/07 00:23:28;;;;;;;41.78;25.83;;;;;;;15.23;81.55;101940.34;5020856;22;20042;-80
2022/10/07 00:26:21;;;;;;;35.22;23.13;;;;;;;15.19;82.32;101933.03;5011035;28;20472;-81
2022/10/07 00:29:06;;;;;;;38.90;23.42;;;;;;;15.42;81.01;101942.81;5000170;28;20498;-80
2022/10/07 00:31:51;;;;;;;;;;;;;;;15.51;79.96;101942.81;5000807;28;20046;-81
2022/10/07 00:34:36;;;;;;;38.40;21.57;;;;;;;15.55;79.76;101936.41;4995762;28;19913;-81
2022/10/07 00:37:20;;;;;;;40.13;23.10;;;;;;;15.32;81.25;101927.47;5014355;28;20272;-81
2022/10/07 00:40:06;;;;;;;32.90;22.30;;;;;;;15.43;81.01;101927.16;5013891;28;20041;-81
2022/10/07 00:42:50;;;;;;;40.00;23.33;;;;;;;15.45;80.38;101925.72;5014132;28;20053;-81
2022/10/07 00:45:35;;;;;;;;;;;;;;;15.47;80.61;101925.41;5020104;28;20042;-81
2022/10/07 00:48:26;;;;;;;34.75;23.48;;;;;;;15.21;81.90;101917.09;5013955;28;19913;-81
2022/10/07 00:51:15;;;;;;;34.65;23.52;;;;;;;14.86;82.77;101905.19;5013967;28;20038;-81
2022/10/07 00:54:03;;;;;;;38.60;22.80;;;;;;;14.86;83.17;101910.66;4996960;28;20046;-81
2022/10/07 00:56:50;;;;;;;31.52;23.00;;;;;;;14.70;83.13;101913.00;4994348;28;20046;-81
2022/10/07 00:59:38;;;;;;;36.92;23.60;;;;;;;14.98;82.12;101910.91;4994298;28;20505;-81
2022/10/07 01:02:24;;;;;;;36.10;21.90;;;;;;;14.91;82.42;101905.03;5001288;28;20038;-81
2022/10/07 01:05:10;;;;;;;32.40;22.65;;;;;;;14.89;83.33;101902.63;5013815;28;20049;-81
2022/10/07 01:07:55;;;;;;;39.00;22.70;;;;;;;14.86;83.20;101899.72;5013796;28;20045;-81
2022/10/07 01:11:12;;;;;;;37.22;24.92;;;;;;;14.79;83.18;101896.59;5019181;28;20505;-81
2022/10/07 01:14:17;;;;;;;33.55;21.60;;;;;;;15.01;81.51;101893.81;5020594;28;20046;-83
2022/10/07 01:17:02;;;;;;;33.75;23.30;;;;;;;14.73;81.76;101889.66;5018254;28;20038;-82
2022/10/07 01:20:28;;;;;;;40.20;22.17;;;;;;;14.61;82.59;101892.16;5003159;28;20042;-82
2022/10/07 01:23:43;;;;;;;38.33;22.27;;;;;;;14.87;81.26;101885.72;5015883;28;20413;-82
2022/10/07 01:26:43;;;;;;;32.92;22.50;;;;;;;14.64;82.20;101877.84;5000190;28;20677;-82
2022/10/07 01:29:38;;;;;;;30.75;21.38;;;;;;;14.73;81.25;101874.00;5002428;28;20046;-82
2022/10/07 01:32:37;;;;;;;36.42;22.13;;;;;;;14.60;81.29;101877.66;5008847;28;20397;-81
2022/10/07 01:35:26;;;;;;;33.20;23.38;;;;;;;14.65;81.43;101871.25;5021193;28;20037;-82
2022/10/07 01:38:12;;;;;;;34.28;25.48;;;;;;;14.78;81.00;101865.66;5021349;28;20045;-82
2022/10/07 01:41:07;;;;;;;41.33;24.38;;;;;;;14.68;82.20;101873.38;5023472;28;20413;-81
2022/10/07 01:43:53;;;;;;;39.90;25.75;;;;;;;14.67;82.33;101872.56;5017337;28;20509;-81
2022/10/07 01:46:38;;;;;;;32.03;22.55;;;;;;;14.68;81.76;101863.19;5022655;28;20402;-81
2022/10/07 01:49:24;;;;;;;40.08;24.33;;;;;;;14.71;81.77;101870.00;5016368;28;20401;-81
2022/10/07 01:52:17;;;;;;;35.92;24.27;;;;;;;14.59;81.81;101870.56;5029703;28;20061;-81
2022/10/07 01:55:29;;;;;;;40.00;24.63;;;;;;;14.67;81.88;101869.00;5003424;28;20037;-81
2022/10/07 01:58:44;;;;;;;39.13;24.75;;;;;;;14.53;82.26;101852.66;5022852;28;20037;-81
2022/10/07 02:01:51;;;;;;;43.05;24.83;;;;;;;14.54;81.68;101860.56;5017928;28;20046;-81
2022/10/07 02:05:08;;;;;;;38.55;24.33;;;;;;;14.69;81.49;101856.59;5017431;28;20042;-81
2022/10/07 02:08:15;;;;;;;39.35;24.38;;;;;;;14.65;81.65;101849.34;5021415;28;20038;-80
2022/10/07 02:11:13;;;;;;;35.88;24.52;;;;;;;14.54;82.09;101835.13;5020512;28;20037;-80
2022/10/07 02:14:22;;;;;;;33.25;24.00;;;;;;;14.35;82.75;101829.84;5017165;28;20502;-81
2022/10/07 02:17:14;;;;;;;39.63;24.23;;;;;;;14.46;81.71;101833.16;5019883;28;20042;-82
2022/10/07 02:20:01;;;;;;;41.33;23.30;;;;;;;14.43;81.30;101829.09;5021105;28;20042;-82
2022/10/07 02:22:51;;;;;;;34.58;22.27;;;;;;;14.35;81.63;101837.25;5020245;28;20050;-80
2022/10/07 02:25:41;;;;;;;51.05;23.10;;;;;;;14.26;82.32;101831.72;5014511;28;20061;-82
2022/10/07 02:28:27;;;;;;;35.55;22.42;;;;;;;14.02;83.11;101839.41;5019704;28;20493;-80
2022/10/07 02:31:16;;;;;;;29.45;20.23;;;;;;;14.14;82.94;101836.94;5014101;28;20046;-82
2022/10/07 02:34:04;;;;;;;31.35;22.17;;;;;;;13.85;83.06;101829.19;5013664;28;20068;-80
2022/10/07 02:36:53;;;;;;;31.05;20.05;;;;;;;14.16;82.28;101829.25;5019639;28;20038;-80
2022/10/07 02:39:38;;;;;;;32.50;20.50;;;;;;;14.18;80.63;101818.78;5015031;28;20049;-81
2022/10/07 02:42:55;;;;;;;27.95;15.00;;;;;;;13.94;82.06;101826.50;5014254;28;20042;-82
2022/10/07 02:45:47;;;;;;;33.95;21.65;;;;;;;14.02;82.64;101823.00;5019117;28;20042;-81
2022/10/07 02:48:57;;;;;;;31.35;20.85;;;;;;;13.89;83.09;101818.41;5013585;28;20042;-81
2022/10/07 02:51:49;;;;;;;34.40;21.88;;;;;;;13.87;84.70;101826.13;5019564;28;20046;-82
2022/10/07 02:54:41;;;;;;;33.97;21.55;;;;;;;13.89;83.75;101829.34;5011070;28;20409;-81
2022/10/07 02:57:32;;;;;;;34.28;20.42;;;;;;;14.21;81.57;101809.97;5006927;28;20046;-81
2022/10/07 03:00:18;;;;;;;35.35;21.52;;;;;;;14.13;81.69;101822.44;4999859;28;20046;-82
2022/10/07 03:03:06;;;;;;;32.20;19.85;;;;;;;13.81;83.29;101806.31;4999430;28;20410;-81
2022/10/07 03:06:01;;;;;;;24.70;15.52;;;;;;;14.01;81.91;101811.28;4994196;28;20498;-81
2022/10/07 03:08:47;;;;;;;29.83;19.73;;;;;;;13.76;83.35;101816.56;4999290;28;20417;-81
2022/10/07 03:11:33;;;;;;;21.77;14.15;;;;;;;13.89;83.74;101810.22;4994681;28;20042;-81
2022/10/07 03:14:18;;;;;;;26.85;18.02;;;;;;;13.76;83.11;101813.81;4994666;28;20046;-81
2022/10/07 03:17:02;;;;;;;26.42;18.05;;;;;;;13.75;82.84;101820.41;5002918;28;20042;-81
2022/10/07 03:19:48;;;;;;;23.70;16.05;;;;;;;13.66;82.20;101809.41;5002496;28;20042;-80
2022/10/07 03:22:34;;;;;;;19.58;13.43;;;;;;;13.70;83.71;101807.66;5002422;28;20422;-81
2022/10/07 03:25:19;;;;;;;26.73;15.77;;;;;;;13.57;83.08;101801.13;4995967;28;20050;-79
2022/10/07 03:28:03;;;;;;;23.65;16.20;;;;;;;13.67;82.37;101806.34;5001731;28;20042;-79
2022/10/07 03:30:48;;;;;;;28.50;16.17;;;;;;;13.62;82.84;101811.13;4995232;28;20054;-79
2022/10/07 03:33:33;;;;;;;23.65;16.08;;;;;;;13.66;83.55;101809.41;4996284;28;20414;-79
2022/10/07 03:36:18;;;;;;;25.10;16.85;;;;;;;13.84;82.78;101804.88;5001725;28;20437;-79
2022/10/07 03:39:05;;;;;;;23.27;16.20;;;;;;;13.78;82.66;101800.63;5006605;28;20042;-80
2022/10/07 03:41:51;;;;;;;27.70;15.82;;;;;;;13.78;83.57;101800.63;4995873;28;20046;-79
2022/10/07 03:44:37;;;;;;;;;;;;;;;13.83;83.23;101805.97;5007145;28;20038;-79
2022/10/07 03:47:21;;;;;;;27.23;14.07;;;;;;;13.71;83.18;101804.59;5007052;28;19913;-79
2022/10/07 03:50:07;;;;;;;21.50;14.82;;;;;;;13.58;83.21;101800.00;4997589;28;20038;-79
2022/10/07 03:52:52;;;;;;;21.60;14.90;;;;;;;13.46;83.25;101801.69;5009981;28;20046;-82
2022/10/07 03:55:37;;;;;;;;;;;;;;;13.64;82.96;101796.03;5020231;28;20482;-82
2022/10/07 03:58:22;;;;;;;22.27;14.30;;;;;;;13.53;83.06;101788.38;5016209;28;19913;-82
2022/10/07 04:01:12;;;;;;;24.60;15.10;;;;;;;13.48;83.47;101791.22;4999357;28;20042;-80
2022/10/07 04:04:02;;;;;;;20.98;15.23;;;;;;;13.44;83.85;101791.03;5007158;28;20042;-80
2022/10/07 04:06:52;;;;;;;23.48;14.70;;;;;;;13.31;83.98;101797.34;5003416;28;20039;-81
2022/10/07 04:09:39;;;;;;;23.13;14.63;;;;;;;13.40;83.91;101792.78;5014039;28;20501;-80
2022/10/07 04:12:24;;;;;;;24.05;14.20;;;;;;;13.14;84.33;101797.19;5022716;28;20037;-81
2022/10/07 04:15:13;;;;;;;19.50;10.57;;;;;;;13.09;84.79;101797.25;4997509;28;20042;-83
2022/10/07 04:17:59;;;;;;;23.60;13.23;;;;;;;13.08;85.41;101801.09;5020695;28;20042;-83
2022/10/07 04:20:45;;;;;;;24.08;13.43;;;;;;;13.03;85.03;101795.75;5017815;28;20054;-81
2022/10/07 04:23:31;;;;;;;20.50;13.70;;;;;;;13.18;84.64;101788.06;5020392;28;20041;-82
2022/10/07 04:26:16;;;;;;;;;;;;;;;13.47;83.41;101792.34;5012787;28;20490;-80
2022/10/07 04:29:04;;;;;;;23.48;14.27;;;;;;;13.25;84.29;101788.47;5020704;28;19913;-82
2022/10/07 04:31:50;;;;;;;;;;;;;;;13.37;83.97;101789.84;5022550;28;20053;-83
2022/10/07 04:34:35;;;;;;;20.88;14.40;;;;;;;13.39;83.63;101791.16;5018151;28;19913;-83
2022/10/07 04:37:19;;;;;;;27.10;14.63;;;;;;;13.34;83.68;101780.34;5022898;28;20042;-82
2022/10/07 04:40:04;;;;;;;;;;;;;;;13.43;83.41;101789.44;5000065;28;20046;-82
2022/10/07 04:46:03;;;;;;;18.90;10.43;;;;;;;13.39;84.17;101788.44;4996228;28;20047;-81
2022/10/07 04:48:48;;;;;;;21.20;12.10;;;;;;;13.50;83.70;101791.75;5007002;28;20050;-80
2022/10/07 04:51:36;;;;;;;17.25;11.65;;;;;;;13.64;82.77;101796.03;5020432;28;20490;-81
2022/10/07 04:54:21;;;;;;;;;;;;;;;13.64;81.93;101781.56;5016432;28;20076;-83
2022/10/07 04:57:12;;;;;;;15.43;11.10;;;;;;;13.61;81.58;101785.72;5004072;28;20305;-82
2022/10/07 04:59:58;;;;;;;18.67;11.23;;;;;;;13.26;82.59;101786.53;4997788;28;20046;-81
2022/10/07 05:02:45;;;;;;;11.48;7.53;;;;;;;13.42;82.69;101784.25;5016641;28;20037;-81
2022/10/07 05:05:30;;;;;;;13.32;10.18;;;;;;;13.31;82.95;101785.63;5000256;28;20053;-81
2022/10/07 05:08:18;;;;;;;202.07;41.55;;;;;;;13.48;83.96;101783.03;5006778;28;20042;-76
2022/10/07 05:11:04;;;;;;;19.95;12.68;;;;;;;13.98;84.70;101779.06;5006034;28;20050;-77
2022/10/07 05:13:57;;;;;;;15.77;10.25;;;;;;;14.59;82.42;101782.16;5010094;28;20034;-76
2022/10/07 05:16:43;;;;;;;13.90;9.13;;;;;;;15.24;78.66;101788.47;5004320;28;20038;-76
2022/10/07 05:19:28;;;;;;;10.32;6.32;;;;;;;15.47;75.62;101793.81;5012158;28;20041;-77
2022/10/07 05:22:13;;;;;;;15.77;8.38;;;;;;;15.60;74.76;101785.47;5009869;28;20041;-77
2022/10/07 05:24:59;;;;;;;13.63;7.95;;;;;;;15.93;73.79;101787.72;5009400;28;20045;-77
2022/10/07 05:27:44;;;;;;;;;;;;;;;16.06;73.14;101787.50;5014076;28;20046;-76
2022/10/07 05:30:28;;;;;;;10.68;7.20;;;;;;;15.94;72.44;101789.31;5010199;28;19913;-77
2022/10/07 05:33:13;;;;;;;10.93;7.03;;;;;;;16.14;71.30;101783.16;5002945;28;20038;-77
2022/10/07 05:35:59;;;;;;;11.93;7.68;;;;;;;16.07;71.10;101782.84;5002947;28;20049;-77
2022/10/07 05:38:45;;;;;;;30.15;9.52;;;;;;;16.18;70.67;101784.91;5009916;28;20046;-77
2022/10/07 05:41:30;;;;;;;38.75;8.57;;;;;;;16.24;70.84;101783.63;5010606;28;20046;-77
2022/10/07 05:44:17;;;;;;;14.48;7.50;;;;;;;16.37;70.20;101778.22;5009662;28;20042;-76
2022/10/07 05:47:04;;;;;;;13.88;7.97;;;;;;;16.55;68.84;101783.34;5009441;28;20042;-76
2022/10/07 05:49:49;;;;;;;17.23;7.78;;;;;;;16.76;67.94;101786.16;5011881;28;20038;-77
2022/10/07 05:52:34;;;;;;;15.65;7.90;;;;;;;17.90;64.95;101783.13;5007443;28;20050;-77
2022/10/07 05:55:20;;;;;;;18.75;8.15;;;;;;;19.48;58.50;101781.28;4997513;28;20046;-78
2022/10/07 05:58:05;;;;;;;15.07;6.60;;;;;;;21.34;53.58;101794.03;5010358;28;20037;-76
2022/10/07 06:00:53;;;;;;;12.52;7.57;;;;;;;22.31;50.49;101794.81;5010461;28;20049;-77
2022/10/07 06:03:39;;;;;;;23.48;6.97;;;;;;;23.79;45.88;101793.50;5005214;28;20034;-77
2022/10/07 06:06:25;;;;;;;15.50;7.65;;;;;;;24.54;43.26;101786.75;5012675;28;20130;-77
2022/10/07 06:15:25;;;;;;;13.55;6.47;;;;;;;26.36;38.35;101792.91;5003587;28;20397;-77
2022/10/07 06:18:10;;;;;;;23.13;8.18;;;;;;;26.65;37.84;101794.50;5004266;28;20053;-78
2022/10/07 06:20:58;;;;;;;10.07;6.00;;;;;;;26.61;37.54;101801.28;5008429;28;20042;-77
2022/10/07 06:23:50;;;;;;;9.77;6.07;;;;;;;27.98;35.40;101797.38;5023129;23;20450;-77
2022/10/07 06:26:37;;;;;;;12.88;5.97;;;;;;;26.01;38.73;101807.53;4989422;28;20049;-76
2022/10/07 06:29:21;;;;;;;10.50;6.13;;;;;;;23.35;44.70;101790.56;4980815;28;20039;-76
2022/10/07 06:32:06;;;;;;;14.45;5.95;;;;;;;22.09;48.84;101801.94;4988893;28;20054;-76
2022/10/07 06:34:51;;;;;;;12.93;5.60;;;;;;;21.19;51.29;101797.63;4991495;28;20050;-76
2022/10/07 06:37:38;;;;;;;16.75;5.28;;;;;;;20.35;54.56;101803.47;4994329;28;20046;-75
2022/10/07 06:40:23;;;;;;;9.93;5.80;;;;;;;20.06;56.44;101793.56;4992143;28;20046;-80
2022/10/07 06:43:08;;;;;;;10.43;5.35;;;;;;;19.22;58.60;101794.66;4993279;28;20548;-78
2022/10/07 06:46:01;;;;;;;12.15;5.38;;;;;;;18.92;59.97;101776.75;4997736;28;20053;-78
2022/10/07 06:48:46;;;;;;;22.00;5.18;;;;;;;18.98;60.42;101791.94;4982320;28;20058;-78
2022/10/07 06:51:33;;;;;;;9.07;4.97;;;;;;;19.15;61.05;101795.22;4998570;28;20046;-78
2022/10/07 06:54:18;;;;;;;17.02;5.22;;;;;;;19.23;61.31;101805.34;4997474;28;20045;-79
2022/10/07 06:57:03;;;;;;;19.02;7.30;;;;;;;19.20;61.95;101797.75;4997592;28;20047;-78
2022/10/07 06:59:48;;;;;;;24.38;7.13;;;;;;;19.19;61.73;101795.34;5000521;28;20046;-79
2022/10/07 07:02:34;;;;;;;20.73;6.30;;;;;;;19.35;61.53;101804.50;5001318;28;20497;-78
2022/10/07 07:05:20;;;;;;;11.77;6.10;;;;;;;19.36;61.18;101799.78;4997943;28;20050;-78
2022/10/07 07:08:05;;;;;;;12.95;6.00;;;;;;;19.26;61.01;101801.06;4997061;28;20049;-79
2022/10/07 07:10:50;;;;;;;12.65;6.25;;;;;;;19.06;61.45;101797.31;4995956;28;20046;-79
2022/10/07 07:13:35;;;;;;;12.38;5.68;;;;;;;19.01;61.85;101800.31;4992899;28;20061;-79
2022/10/07 07:16:20;;;;;;;;;;;;;;;19.20;61.85;101810.72;4997574;28;20038;-77
2022/10/07 07:19:07;;;;;;;15.15;5.95;;;;;;;19.07;62.29;101806.38;4997719;28;19913;-80
2022/10/07 07:21:53;;;;;;;13.65;5.78;;;;;;;19.21;62.07;101810.38;4981200;28;20042;-79
2022/10/07 07:24:41;;;;;;;11.32;6.20;;;;;;;19.49;61.67;101817.97;4992527;28;20054;-79
2022/10/07 07:27:26;;;;;;;13.57;6.53;;;;;;;19.46;61.79;101813.94;4996345;28;20053;-79
2022/10/07 07:30:12;;;;;;;16.48;7.15;;;;;;;19.19;62.63;101818.22;4993580;28;20046;-79
2022/10/07 07:32:57;;;;;;;14.45;7.30;;;;;;;18.65;63.99;101812.13;4992723;28;20046;-78
2022/10/07 07:35:43;;;;;;;16.33;7.30;;;;;;;18.35;65.73;101814.22;4993360;28;20053;-79
2022/10/07 07:38:28;;;;;;;14.52;8.10;;;;;;;18.38;66.25;101821.03;4993848;28;20038;-79
2022/10/07 07:41:13;;;;;;;13.52;7.18;;;;;;;18.47;65.80;101818.97;4997960;28;20046;-78
2022/10/07 07:44:02;;;;;;;13.10;7.28;;;;;;;18.50;65.40;101821.03;4994298;28;20049;-75
2022/10/07 07:46:50;;;;;;;13.40;8.05;;;;;;;18.59;65.21;101815.47;4984784;28;20495;-77
2022/10/07 07:49:35;;;;;;;12.38;7.07;;;;;;;18.56;64.35;101813.38;4991837;28;20049;-77
2022/10/07 07:52:21;;;;;;;17.15;7.28;;;;;;;18.69;63.78;101806.75;4990555;28;20407;-76
2022/10/07 07:55:07;;;;;;;16.77;7.32;;;;;;;18.94;63.18;101807.56;4974939;28;20043;-77
2022/10/07 07:57:53;;;;;;;24.83;7.53;;;;;;;19.14;62.72;101807.44;4981492;28;20509;-80
2022/10/07 08:00:38;;;;;;;16.40;7.53;;;;;;;19.04;63.17;101805.16;4986266;28;20046;-80
2022/10/07 08:03:24;;;;;;;14.65;7.78;;;;;;;19.11;62.87;101796.28;4990030;28;20043;-78
2022/10/07 08:06:11;;;;;;;14.07;7.82;;;;;;;19.08;62.94;101797.78;4978806;28;20050;-79
2022/10/07 08:08:57;;;;;;;15.07;7.50;;;;;;;19.03;63.70;101792.50;4974862;28;20043;-80
2022/10/07 08:11:45;;;;;;;19.98;6.90;;;;;;;19.16;63.22;101793.28;4974978;28;20122;-78
2022/10/07 08:14:35;;;;;;;14.25;6.93;;;;;;;19.36;62.51;101802.53;4977148;28;20427;-79
2022/10/07 08:17:21;;;;;;;11.48;6.50;;;;;;;19.37;61.82;101793.94;4976780;28;20043;-78
2022/10/07 08:20:07;;;;;;;;;;;;;;;19.56;61.21;101799.66;4983822;28;20046;-77
2022/10/07 08:22:52;;;;;;;9.07;5.60;;;;;;;19.94;60.77;101796.41;5002394;28;19917;-77
2022/10/07 08:25:37;;;;;;;;;;;;;;;19.94;61.18;101795.63;4996979;28;20050;-79
2022/10/07 08:28:24;;;;;;;12.68;4.95;;;;;;;19.79;59.75;101790.84;4996361;28;19913;-77
2022/10/07 08:31:13;;;;;;;8.70;4.38;;;;;;;20.07;59.39;101794.38;4995990;28;20044;-79
2022/10/07 08:34:01;;;;;;;13.50;4.60;;;;;;;20.14;58.28;101783.53;4995032;28;20061;-79
2022/10/07 08:36:47;;;;;;;7.50;3.55;;;;;;;20.11;56.58;101781.50;4978615;28;20418;-79
2022/10/07 08:39:32;;;;;;;14.20;3.63;;;;;;;20.13;55.07;101783.88;4977709;28;20053;-77
2022/10/07 08:42:43;;;;;;;10.18;3.83;;;;;;;20.29;55.85;101782.75;4974510;28;20050;-77
2022/10/07 08:45:32;;;;;;;40.10;4.30;;;;;;;20.36;55.42;101769.16;4974225;28;20050;-76
2022/10/07 08:48:23;;;;;;;4.43;2.42;;;;;;;20.42;52.95;101764.16;4976769;28;20047;-78
2022/10/07 08:51:37;;;;;;;11.15;1.90;;;;;;;20.46;51.72;101760.34;4974380;28;20046;-77
2022/10/07 08:54:26;;;;;;;5.10;1.70;;;;;;;20.59;51.15;101763.81;4974150;28;20058;-77
2022/10/07 08:57:21;;;;;;;7.82;1.90;;;;;;;20.69;50.42;101760.50;4975258;28;20065;-79
2022/10/07 09:00:10;;;;;;;10.40;1.77;;;;;;;20.89;49.64;101745.56;4978100;28;20049;-78
2022/10/07 09:03:17;;;;;;;4.18;1.80;;;;;;;21.26;49.83;101757.13;4976346;28;20062;-79
2022/10/07 09:06:12;;;;;;;7.07;1.65;;;;;;;21.35;48.97;101751.34;4973347;28;20115;-78
2022/10/07 09:09:05;;;;;;;8.98;2.05;;;;;;;21.27;48.33;101752.38;4976842;28;20046;-78
2022/10/07 09:11:51;;;;;;;6.20;2.00;;;;;;;21.39;48.78;101746.69;4974519;28;20054;-79
2022/10/07 09:14:40;;;;;;;8.38;2.20;;;;;;;21.64;47.99;101741.66;4972794;28;20057;-78
2022/10/07 09:17:40;;;;;;;12.80;2.60;;;;;;;21.47;48.04;101733.81;4973889;28;20050;-78
2022/10/07 09:20:36;;;;;;;5.55;1.90;;;;;;;21.51;48.49;101732.72;4973730;28;20053;-78
2022/10/07 09:23:28;;;;;;;8.70;2.53;;;;;;;21.35;48.99;101729.22;4976928;28;20419;-76
2022/10/07 09:26:15;;;;;;;2.25;1.50;;;;;;;21.50;48.78;101733.06;4974004;28;20046;-78
2022/10/07 09:29:00;;;;;;;8.30;2.38;;;;;;;21.58;49.70;101730.09;4973290;28;20050;-77
2022/10/07 09:31:44;;;;;;;3.17;1.73;;;;;;;21.94;48.24;101725.28;4973555;28;20049;-78
2022/10/07 09:34:30;;;;;;;6.10;2.03;;;;;;;22.04;48.04;101728.25;4973384;28;20062;-78
2022/10/07 09:37:23;;;;;;;9.18;2.40;;;;;;;22.08;48.23;101723.56;4973089;28;20061;-78
2022/10/07 09:40:34;;;;;;;4.45;1.95;;;;;;;22.20;46.87;101725.34;4973276;28;20057;-78
2022/10/07 09:43:18;;;;;;;2.67;1.40;;;;;;;21.97;47.31;101722.56;4973375;28;20049;-80
2022/10/07 09:46:03;;;;;;;9.10;2.13;;;;;;;21.74;48.20;101707.84;4973325;28;20509;-78
2022/10/07 09:48:53;;;;;;;5.20;1.42;;;;;;;22.00;48.16;101721.00;4975344;28;20046;-79
2022/10/07 09:51:40;;;;;;;7.78;2.45;;;;;;;21.70;48.51;101721.63;4973363;28;20062;-79
2022/10/07 09:54:26;;;;;;;7.68;1.88;;;;;;;21.82;48.19;101709.59;4974111;28;20046;-78
2022/10/07 09:57:30;;;;;;;5.05;2.30;;;;;;;22.04;47.72;101722.72;4972300;28;20069;-79
2022/10/07 10:00:22;;;;;;;9.65;2.10;;;;;;;22.12;47.23;101712.53;4975294;28;20529;-77
2022/10/07 10:03:06;;;;;;;7.97;1.70;;;;;;;22.18;47.79;101706.31;4973151;28;20070;-79
2022/10/07 10:05:56;;;;;;;3.30;1.95;;;;;;;22.20;47.56;101717.03;4973173;28;20054;-78
2022/10/07 10:08:42;;;;;;;3.25;1.55;;;;;;;22.28;47.24;101710.44;4974933;28;20418;-80
2022/10/07 10:11:27;;;;;;;7.45;1.80;;;;;;;22.25;47.06;101702.09;4973422;28;20406;-77
2022/10/07 10:14:41;;;;;;;5.88;1.75;;;;;;;22.60;46.16;101703.41;4976973;28;20049;-79
2022/10/07 10:17:30;;;;;;;7.13;2.15;;;;;;;22.80;46.15;101700.59;4975459;28;20066;-81
2022/10/07 10:20:42;;;;;;;10.07;2.05;;;;;;;22.74;45.70;101694.56;4977750;28;20054;-78
2022/10/07 10:23:27;;;;;;;11.98;2.20;;;;;;;22.90;45.97;101694.41;4984900;28;20049;-78
2022/10/07 10:26:24;;;;;;;6.18;1.63;;;;;;;22.92;45.56;101686.47;5014047;28;20073;-80
2022/10/07 10:29:30;;;;;;;36.70;3.67;;;;;;;23.29;44.38;101692.13;4989935;28;20070;-77
2022/10/07 10:32:24;;;;;;;5.55;1.45;;;;;;;23.33;43.02;101687.41;4992141;28;20430;-79
2022/10/07 10:35:21;;;;;;;4.57;2.05;;;;;;;23.49;43.57;101685.25;4992081;28;20605;-83
2022/10/07 10:38:26;;;;;;;4.65;1.98;;;;;;;23.68;42.60;101675.94;4996623;28;20045;-78
2022/10/07 10:41:18;;;;;;;3.28;1.80;;;;;;;23.72;42.51;101669.22;4999518;28;20045;-80
2022/10/07 10:44:19;;;;;;;6.93;1.90;;;;;;;23.62;43.03;101669.91;4990245;28;20829;-78
2022/10/07 10:47:32;;;;;;;1.70;1.10;;;;;;;23.91;41.13;101662.69;4995427;28;20049;-78
2022/10/07 10:50:26;;;;;;;4.78;1.65;;;;;;;23.66;42.45;101661.63;4998203;28;20065;-77
2022/10/07 10:53:30;;;;;;;7.80;2.53;;;;;;;23.78;42.60;101653.00;4995960;28;20053;-78
2022/10/07 10:56:27;;;;;;;10.20;1.85;;;;;;;23.72;42.34;101649.00;4991750;28;20060;-78
2022/10/07 10:59:24;;;;;;;10.73;1.98;;;;;;;23.91;42.35;101636.88;5002915;28;20039;-77
2022/10/07 11:02:08;;;;;;;5.82;1.67;;;;;;;23.82;41.84;101637.97;5008541;28;20049;-78
2022/10/07 11:04:57;;;;;;;;;;;;;;;23.93;42.02;101626.16;4994529;28;20049;-78
2022/10/07 11:07:46;;;;;;;5.50;1.67;;;;;;;24.19;41.78;101615.69;4996348;28;20381;-79
2022/10/07 11:10:42;;;;;;;4.55;1.70;;;;;;;24.31;41.76;101613.78;4993530;28;20049;-78
2022/10/07 11:13:53;;;;;;;7.03;1.55;;;;;;;24.41;40.84;101607.50;4999952;28;20041;-79
2022/10/07 11:16:49;;;;;;;5.50;1.90;;;;;;;24.46;40.72;101598.78;4999712;28;20045;-78
2022/10/07 11:19:39;;;;;;;7.72;1.88;;;;;;;25.26;38.53;101605.91;4988498;28;20410;-78
2022/10/07 11:22:33;;;;;;;10.15;2.17;;;;;;;25.41;37.98;101601.97;4994517;28;20046;-78
2022/10/07 11:25:35;;;;;;;4.00;1.55;;;;;;;27.83;34.18;101594.56;4993344;28;20034;-79
2022/10/07 11:28:25;;;;;;;6.18;1.45;;;;;;;31.14;28.25;101588.44;5006412;28;20045;-80
2022/10/07 11:31:32;;;;;;;4.65;1.45;;;;;;;37.71;19.73;101607.59;4995344;28;20057;-82
2022/10/07 11:34:27;;;;;;;4.22;1.50;;;;;;;41.43;15.73;101615.25;5006746;28;20042;-80
2022/10/07 11:37:29;;;;;;;5.75;1.50;;;;;;;41.58;15.90;101605.78;4989898;28;20524;-82
2022/10/07 11:40:15;;;;;;;5.55;2.05;;;;;;;38.13;18.59;101592.50;4996320;28;20049;-79
2022/10/07 11:43:12;;;;;;;12.15;1.83;;;;;;;42.36;14.65;101591.84;4992840;28;20057;-81
2022/10/07 11:46:02;;;;;;;2.78;1.25;;;;;;;40.14;16.79;101585.97;4995144;28;20045;-80
2022/10/07 11:48:55;;;;;;;2.55;1.33;;;;;;;44.57;13.28;101591.91;4995137;28;20045;-78
2022/10/07 11:52:01;;;;;;;3.42;1.23;;;;;;;43.14;13.71;101583.31;4994677;28;20049;-80
2022/10/07 11:54:59;;;;;;;9.27;1.75;;;;;;;43.10;14.04;101577.09;4995375;28;20045;-79
2022/10/07 11:57:56;;;;;;;2.80;1.45;;;;;;;40.64;15.98;101563.00;4995021;28;20089;-78
2022/10/07 12:00:40;;;;;;;1.90;1.38;;;;;;;46.32;11.53;101568.91;4998198;28;20065;-78
2022/10/07 12:03:32;;;;;;;7.93;1.60;;;;;;;42.47;13.77;101558.28;4996195;28;20532;-79
2022/10/07 12:06:16;;;;;;;13.52;1.98;;;;;;;40.80;16.09;101542.34;4992446;28;20045;-79
2022/10/07 12:09:39;;;;;;;5.38;1.60;;;;;;;43.45;14.29;101548.63;4999958;28;20038;-78
2022/10/07 12:12:45;;;;;;;3.20;1.33;;;;;;;42.11;14.35;101531.44;4989667;28;20077;-78
2022/10/07 12:15:43;;;;;;;8.50;1.73;;;;;;;40.55;15.55;101527.59;4991557;28;20053;-80
2022/10/07 12:18:32;;;;;;;78.13;3.72;;;;;;;45.37;12.29;101537.66;4997708;28;20624;-79
2022/10/07 12:21:23;;;;;;;10.23;1.35;;;;;;;49.86;8.90;101527.28;4998748;28;20113;-78
2022/10/07 12:24:13;;;;;;;4.93;1.23;;;;;;;46.92;10.43;101519.50;5022724;23;20065;-78
2022/10/07 12:27:12;;;;;;;7.55;1.52;;;;;;;47.04;10.65;101512.19;5003207;28;20057;-78
2022/10/07 12:30:01;;;;;;;4.15;1.27;;;;;;;47.21;10.40;101503.22;5002704;28;20420;-78
2022/10/07 12:32:59;;;;;;;2.83;1.50;;;;;;;42.09;14.02;101484.66;5018250;28;20045;-78
2022/10/07 12:35:47;;;;;;;4.72;1.40;;;;;;;43.51;12.89;101489.25;5017576;28;20524;-78
2022/10/07 12:38:31;;;;;;;4.47;1.40;;;;;;;42.28;14.27;101480.03;5014117;28;20037;-78
2022/10/07 12:41:42;;;;;;;4.60;1.60;;;;;;;39.28;17.04;101475.56;5020689;28;20410;-78
2022/10/07 12:44:47;;;;;;;6.60;1.90;;;;;;;43.47;13.06;101480.94;5011383;28;20045;-78
2022/10/07 12:47:32;;;;;;;3.85;1.50;;;;;;;41.04;15.19;101467.84;4998958;28;20049;-78
2022/10/07 12:50:19;;;;;;;4.90;1.50;;;;;;;42.86;13.81;101469.63;5002747;28;20041;-78
2022/10/07 12:53:05;;;;;;;3.63;1.52;;;;;;;42.52;14.04;101465.97;5011215;28;20056;-78
2022/10/07 12:55:54;;;;;;;5.90;1.40;;;;;;;43.21;13.25;101469.03;5008136;28;20520;-78
2022/10/07 13:02:33;;;;;;;10.65;2.85;;;;;;;45.89;11.11;101462.53;4996681;28;20532;-78
2022/10/07 13:05:36;;;;;;;4.25;1.40;;;;;;;41.30;14.70;101448.50;4995728;28;20050;-78
2022/10/07 13:08:36;;;;;;;7.10;1.50;;;;;;;41.10;15.24;101446.59;5006390;28;20057;-79
2022/10/07 13:11:30;;;;;;;7.10;1.52;;;;;;;45.85;11.26;101449.81;5008494;28;20045;-79
2022/10/07 13:14:25;;;;;;;5.07;1.20;;;;;;;46.43;10.75;101458.53;5006679;28;20406;-79
2022/10/07 13:17:34;;;;;;;6.78;1.45;;;;;;;46.63;10.37;101452.22;5014672;28;20056;-78
2022/10/07 13:20:26;;;;;;;2.78;1.70;;;;;;;47.61;9.65;101452.06;5016753;28;20045;-78